SWR204K LIMC-LSZH
Flight info
| Callsign | SWR204K |
|---|---|
| Flight time | 0h 28m |
| Altitude | 26000 |
| Route | PEPAG2Q PEPAG DCT CANNE Z651 KELIP KELIP3G |
| Aircraft | A320/M-SDE3FGHIRWY/LB1 |
Departure
| Time | 2026-05-05 06:32 |
|---|---|
| Airport | Milan Malpensa International Airport (LIMC) |
Arrival
| Time | 2026-05-05 07:00 |
|---|---|
| Airport | Zürich Airport (LSZH) |
| Time | Latitude | Longitude | Altitude | Speed | Heading |
|---|---|---|---|---|---|
| 2026-05-05 06:06 | 45.62458 | 8.71757 | 717 ft | 0 kts | 258° |
| 2026-05-05 06:23 | 45.62461 | 8.71778 | 720 ft | 4 kts | 256° |
| 2026-05-05 06:23 | 45.62468 | 8.71815 | 716 ft | 4 kts | 250° |
| 2026-05-05 06:24 | 45.62479 | 8.71850 | 721 ft | 4 kts | 234° |
| 2026-05-05 06:24 | 45.62496 | 8.71873 | 719 ft | 4 kts | 185° |
| 2026-05-05 06:24 | 45.62507 | 8.71872 | 716 ft | 1 kts | 169° |
| 2026-05-05 06:25 | 45.62496 | 8.71875 | 720 ft | 5 kts | 169° |
| 2026-05-05 06:26 | 45.62436 | 8.71893 | 720 ft | 12 kts | 168° |
| 2026-05-05 06:26 | 45.62356 | 8.71948 | 717 ft | 14 kts | 116° |
| 2026-05-05 06:26 | 45.62358 | 8.72084 | 716 ft | 14 kts | 108° |
| 2026-05-05 06:26 | 45.62269 | 8.72140 | 720 ft | 15 kts | 168° |
| 2026-05-05 06:27 | 45.62163 | 8.72171 | 718 ft | 16 kts | 168° |
| 2026-05-05 06:27 | 45.61884 | 8.72247 | 720 ft | 26 kts | 169° |
| 2026-05-05 06:27 | 45.61688 | 8.72303 | 719 ft | 30 kts | 168° |
| 2026-05-05 06:28 | 45.61482 | 8.72356 | 718 ft | 27 kts | 170° |
| 2026-05-05 06:28 | 45.61414 | 8.72492 | 716 ft | 17 kts | 79° |
| 2026-05-05 06:28 | 45.61441 | 8.72647 | 715 ft | 16 kts | 76° |
| 2026-05-05 06:28 | 45.61382 | 8.72753 | 716 ft | 18 kts | 167° |
| 2026-05-05 06:29 | 45.61249 | 8.72795 | 716 ft | 21 kts | 167° |
| 2026-05-05 06:29 | 45.61112 | 8.72862 | 719 ft | 18 kts | 123° |
| 2026-05-05 06:29 | 45.61135 | 8.73043 | 717 ft | 21 kts | 58° |
| 2026-05-05 06:29 | 45.61257 | 8.73172 | 718 ft | 24 kts | 32° |
| 2026-05-05 06:30 | 45.61405 | 8.73269 | 719 ft | 24 kts | 358° |
| 2026-05-05 06:30 | 45.61578 | 8.73247 | 719 ft | 23 kts | 25° |
| 2026-05-05 06:30 | 45.61618 | 8.73465 | 719 ft | 26 kts | 111° |
| 2026-05-05 06:30 | 45.61605 | 8.73698 | 719 ft | 21 kts | 60° |
| 2026-05-05 06:31 | 45.61699 | 8.73717 | 716 ft | 4 kts | 347° |
| 2026-05-05 06:31 | 45.61708 | 8.73714 | 721 ft | 10 kts | 347° |
| 2026-05-05 06:31 | 45.62099 | 8.73599 | 716 ft | 101 kts | 349° |
| 2026-05-05 06:31 | 45.63043 | 8.73343 | 725 ft | 171 kts | 348° |
| 2026-05-05 06:32 | 45.64313 | 8.73074 | 1252 ft | 198 kts | 350° |
| 2026-05-05 06:32 | 45.65747 | 8.72932 | 2093 ft | 213 kts | 11° |
| 2026-05-05 06:32 | 45.67001 | 8.73941 | 3132 ft | 210 kts | 49° |
| 2026-05-05 06:32 | 45.67751 | 8.75729 | 4029 ft | 208 kts | 64° |
| 2026-05-05 06:33 | 45.68428 | 8.77530 | 4975 ft | 204 kts | 64° |
| 2026-05-05 06:33 | 45.69200 | 8.79275 | 5727 ft | 212 kts | 50° |
| 2026-05-05 06:33 | 45.70348 | 8.80652 | 6482 ft | 218 kts | 43° |
| 2026-05-05 06:33 | 45.71537 | 8.82022 | 7213 ft | 221 kts | 45° |
| 2026-05-05 06:34 | 45.72515 | 8.83695 | 7805 ft | 225 kts | 67° |
| 2026-05-05 06:34 | 45.73372 | 8.85712 | 8164 ft | 253 kts | 50° |
| 2026-05-05 06:34 | 45.74847 | 8.87338 | 8553 ft | 282 kts | 34° |
| 2026-05-05 06:34 | 45.76629 | 8.88694 | 9214 ft | 295 kts | 29° |
| 2026-05-05 06:35 | 45.78499 | 8.89998 | 10020 ft | 302 kts | 28° |
| 2026-05-05 06:35 | 45.80433 | 8.91401 | 10410 ft | 323 kts | 30° |
| 2026-05-05 06:35 | 45.82483 | 8.93001 | 10678 ft | 347 kts | 32° |
| 2026-05-05 06:35 | 45.84597 | 8.94763 | 11047 ft | 363 kts | 33° |
| 2026-05-05 06:36 | 45.86803 | 8.96688 | 11705 ft | 370 kts | 34° |
| 2026-05-05 06:36 | 45.88973 | 8.98630 | 12393 ft | 375 kts | 34° |
| 2026-05-05 06:36 | 45.91197 | 9.00645 | 13115 ft | 381 kts | 34° |
| 2026-05-05 06:36 | 45.93526 | 9.02530 | 13822 ft | 389 kts | 25° |
| 2026-05-05 06:37 | 45.96142 | 9.03643 | 14413 ft | 396 kts | 9° |
| 2026-05-05 06:37 | 45.98902 | 9.03794 | 15007 ft | 400 kts | 354° |
| 2026-05-05 06:37 | 46.01632 | 9.02949 | 15629 ft | 403 kts | 339° |
| 2026-05-05 06:37 | 46.04141 | 9.01162 | 16258 ft | 404 kts | 324° |
| 2026-05-05 06:38 | 46.06435 | 8.98804 | 16878 ft | 407 kts | 322° |
| 2026-05-05 06:38 | 46.08736 | 8.96403 | 17520 ft | 410 kts | 322° |
| 2026-05-05 06:38 | 46.11059 | 8.93974 | 18163 ft | 413 kts | 322° |
| 2026-05-05 06:38 | 46.13431 | 8.91588 | 18720 ft | 418 kts | 326° |
| 2026-05-05 06:39 | 46.16017 | 8.89617 | 19272 ft | 423 kts | 334° |
| 2026-05-05 06:39 | 46.18804 | 8.88187 | 19821 ft | 428 kts | 343° |
| 2026-05-05 06:39 | 46.21743 | 8.87355 | 20388 ft | 432 kts | 352° |
| 2026-05-05 06:39 | 46.24739 | 8.86917 | 20927 ft | 434 kts | 353° |
| 2026-05-05 06:40 | 46.27751 | 8.86476 | 21491 ft | 436 kts | 353° |
| 2026-05-05 06:40 | 46.30783 | 8.86021 | 22036 ft | 438 kts | 352° |
| 2026-05-05 06:40 | 46.33783 | 8.85566 | 22552 ft | 441 kts | 352° |
| 2026-05-05 06:40 | 46.36847 | 8.85099 | 23050 ft | 444 kts | 352° |
| 2026-05-05 06:41 | 46.39980 | 8.84620 | 23481 ft | 450 kts | 352° |
| 2026-05-05 06:41 | 46.43075 | 8.84148 | 23851 ft | 454 kts | 352° |
| 2026-05-05 06:41 | 46.46267 | 8.83665 | 24237 ft | 457 kts | 352° |
| 2026-05-05 06:41 | 46.49398 | 8.83193 | 24617 ft | 459 kts | 352° |
| 2026-05-05 06:42 | 46.52588 | 8.82714 | 25023 ft | 461 kts | 352° |
| 2026-05-05 06:42 | 46.55790 | 8.82232 | 25390 ft | 464 kts | 352° |
| 2026-05-05 06:42 | 46.59005 | 8.81746 | 25775 ft | 466 kts | 352° |
| 2026-05-05 06:42 | 46.62230 | 8.81258 | 25961 ft | 467 kts | 352° |
| 2026-05-05 06:43 | 46.65483 | 8.80763 | 25977 ft | 471 kts | 352° |
| 2026-05-05 06:43 | 46.68742 | 8.80265 | 25978 ft | 472 kts | 352° |
| 2026-05-05 06:43 | 46.72013 | 8.79767 | 25956 ft | 472 kts | 352° |
| 2026-05-05 06:43 | 46.75282 | 8.79273 | 25960 ft | 472 kts | 352° |
| 2026-05-05 06:44 | 46.78553 | 8.78780 | 25958 ft | 472 kts | 352° |
| 2026-05-05 06:44 | 46.81818 | 8.78283 | 25897 ft | 472 kts | 352° |
| 2026-05-05 06:44 | 46.85086 | 8.77780 | 25644 ft | 472 kts | 352° |
| 2026-05-05 06:44 | 46.88335 | 8.77280 | 24880 ft | 469 kts | 352° |
| 2026-05-05 06:45 | 46.91575 | 8.76783 | 24063 ft | 467 kts | 352° |
| 2026-05-05 06:45 | 46.94805 | 8.76291 | 23296 ft | 464 kts | 352° |
| 2026-05-05 06:45 | 46.97999 | 8.75802 | 22531 ft | 459 kts | 352° |
| 2026-05-05 06:45 | 47.01153 | 8.75312 | 21847 ft | 454 kts | 352° |
| 2026-05-05 06:46 | 47.04273 | 8.74818 | 21186 ft | 449 kts | 352° |
| 2026-05-05 06:46 | 47.07361 | 8.74311 | 20536 ft | 444 kts | 351° |
| 2026-05-05 06:46 | 47.10398 | 8.73671 | 19922 ft | 439 kts | 349° |
| 2026-05-05 06:46 | 47.13395 | 8.72897 | 19343 ft | 434 kts | 348° |
| 2026-05-05 06:47 | 47.16344 | 8.72059 | 18764 ft | 430 kts | 347° |
| 2026-05-05 06:47 | 47.19265 | 8.71210 | 18224 ft | 426 kts | 347° |
| 2026-05-05 06:47 | 47.22169 | 8.70381 | 17635 ft | 422 kts | 348° |
| 2026-05-05 06:47 | 47.25039 | 8.69584 | 17121 ft | 417 kts | 346° |
| 2026-05-05 06:48 | 47.27806 | 8.68422 | 16600 ft | 411 kts | 337° |
| 2026-05-05 06:48 | 47.30366 | 8.66761 | 16092 ft | 406 kts | 333° |
| 2026-05-05 06:48 | 47.32918 | 8.65017 | 15561 ft | 402 kts | 333° |
| 2026-05-05 06:48 | 47.35338 | 8.63022 | 15033 ft | 396 kts | 323° |
| 2026-05-05 06:49 | 47.37448 | 8.60455 | 14469 ft | 391 kts | 312° |
| 2026-05-05 06:49 | 47.39186 | 8.57410 | 13924 ft | 385 kts | 302° |
| 2026-05-05 06:49 | 47.40608 | 8.54087 | 13281 ft | 382 kts | 299° |
| 2026-05-05 06:49 | 47.42001 | 8.50770 | 12709 ft | 378 kts | 299° |
| 2026-05-05 06:50 | 47.43386 | 8.47489 | 12109 ft | 375 kts | 299° |
| 2026-05-05 06:50 | 47.44764 | 8.44235 | 11508 ft | 372 kts | 300° |
| 2026-05-05 06:50 | 47.46133 | 8.41004 | 10892 ft | 369 kts | 300° |
| 2026-05-05 06:50 | 47.47462 | 8.37855 | 10696 ft | 355 kts | 300° |
| 2026-05-05 06:51 | 47.48744 | 8.34816 | 10599 ft | 340 kts | 300° |
| 2026-05-05 06:51 | 47.49965 | 8.31913 | 10472 ft | 326 kts | 301° |
| 2026-05-05 06:51 | 47.51317 | 8.29296 | 10341 ft | 316 kts | 312° |
| 2026-05-05 06:51 | 47.52880 | 8.27094 | 10194 ft | 305 kts | 316° |
| 2026-05-05 06:52 | 47.54425 | 8.24972 | 9976 ft | 299 kts | 316° |
| 2026-05-05 06:52 | 47.55431 | 8.23585 | 9944 ft | 298 kts | 316° |
| 2026-05-05 06:52 | 47.56946 | 8.21494 | 9856 ft | 297 kts | 316° |
| 2026-05-05 06:52 | 47.58462 | 8.19399 | 9371 ft | 300 kts | 316° |
| 2026-05-05 06:53 | 47.60115 | 8.17510 | 8910 ft | 301 kts | 335° |
| 2026-05-05 06:53 | 47.62140 | 8.16966 | 8514 ft | 297 kts | 7° |
| 2026-05-05 06:53 | 47.64039 | 8.18004 | 8107 ft | 291 kts | 38° |
| 2026-05-05 06:53 | 47.65491 | 8.20079 | 7674 ft | 289 kts | 48° |
| 2026-05-05 06:54 | 47.66851 | 8.22277 | 7224 ft | 289 kts | 53° |
| 2026-05-05 06:54 | 47.67645 | 8.24942 | 6777 ft | 284 kts | 85° |
| 2026-05-05 06:54 | 47.67327 | 8.27768 | 6397 ft | 279 kts | 118° |
| 2026-05-05 06:54 | 47.66037 | 8.29811 | 6027 ft | 267 kts | 148° |
| 2026-05-05 06:55 | 47.64503 | 8.31203 | 5662 ft | 250 kts | 141° |
| 2026-05-05 06:55 | 47.63263 | 8.32872 | 5418 ft | 232 kts | 135° |
| 2026-05-05 06:55 | 47.62129 | 8.34491 | 5133 ft | 221 kts | 136° |
| 2026-05-05 06:55 | 47.61033 | 8.36015 | 4854 ft | 211 kts | 136° |
| 2026-05-05 06:56 | 47.59990 | 8.37452 | 4604 ft | 198 kts | 136° |
| 2026-05-05 06:56 | 47.59019 | 8.38787 | 4333 ft | 182 kts | 136° |
| 2026-05-05 06:56 | 47.58139 | 8.39996 | 4088 ft | 164 kts | 136° |
| 2026-05-05 06:56 | 47.57324 | 8.41117 | 3870 ft | 161 kts | 136° |
| 2026-05-05 06:57 | 47.56496 | 8.42253 | 3661 ft | 166 kts | 136° |
| 2026-05-05 06:57 | 47.55648 | 8.43418 | 3439 ft | 167 kts | 136° |
| 2026-05-05 06:57 | 47.54798 | 8.44583 | 3240 ft | 166 kts | 136° |
| 2026-05-05 06:57 | 47.53974 | 8.45711 | 3002 ft | 155 kts | 136° |
| 2026-05-05 06:58 | 47.53204 | 8.46762 | 2775 ft | 146 kts | 137° |
| 2026-05-05 06:58 | 47.52466 | 8.47771 | 2577 ft | 143 kts | 137° |
| 2026-05-05 06:58 | 47.51742 | 8.48767 | 2405 ft | 142 kts | 137° |
| 2026-05-05 06:58 | 47.51023 | 8.49760 | 2216 ft | 141 kts | 137° |
| 2026-05-05 06:59 | 47.50311 | 8.50759 | 2035 ft | 140 kts | 136° |
| 2026-05-05 06:59 | 47.49597 | 8.51742 | 1878 ft | 140 kts | 138° |
| 2026-05-05 06:59 | 47.48876 | 8.52715 | 1651 ft | 140 kts | 137° |
| 2026-05-05 06:59 | 47.48161 | 8.53688 | 1455 ft | 139 kts | 138° |
| 2026-05-05 07:00 | 47.47507 | 8.54570 | 1396 ft | 108 kts | 137° |
| 2026-05-05 07:00 | 47.47081 | 8.55149 | 1388 ft | 59 kts | 137° |
| 2026-05-05 07:00 | 47.46844 | 8.55480 | 1394 ft | 44 kts | 137° |
| 2026-05-05 07:00 | 47.46619 | 8.55670 | 1394 ft | 34 kts | 163° |
| 2026-05-05 07:01 | 47.46397 | 8.55755 | 1398 ft | 32 kts | 156° |
| 2026-05-05 07:01 | 47.46237 | 8.55957 | 1411 ft | 28 kts | 139° |
| 2026-05-05 07:01 | 47.46083 | 8.55993 | 1407 ft | 23 kts | 184° |
| 2026-05-05 07:01 | 47.45943 | 8.55932 | 1409 ft | 19 kts | 239° |
| 2026-05-05 07:02 | 47.45949 | 8.55725 | 1403 ft | 22 kts | 276° |
| 2026-05-05 07:02 | 47.45963 | 8.55506 | 1400 ft | 16 kts | 271° |
| 2026-05-05 07:02 | 47.45986 | 8.55462 | 1399 ft | 2 kts | 355° |
| 2026-05-05 07:02 | 47.46006 | 8.55464 | 1398 ft | 3 kts | 4° |
| 2026-05-05 07:03 | 47.46027 | 8.55467 | 1398 ft | 2 kts | 5° |
| 2026-05-05 07:03 | 47.46038 | 8.55469 | 1405 ft | 3 kts | 7° |
| 2026-05-05 07:03 | 47.46050 | 8.55471 | 1401 ft | 1 kts | 6° |
| 2026-05-05 07:03 | 47.46051 | 8.55471 | 1399 ft | 0 kts | 6° |